sensor_id;sensor_type;location;lat;lon;timestamp;pressure;altitude;pressure_sealevel;temperature;humidity
42067;BME280;27734;47.028;28.820;2023-08-07T00:00:55;98837.03;;;24.05;64.82
42067;BME280;27734;47.028;28.820;2023-08-07T00:03:34;98834.63;;;23.99;65.09
42067;BME280;27734;47.028;28.820;2023-08-07T00:06:03;98831.23;;;23.96;65.43
42067;BME280;27734;47.028;28.820;2023-08-07T00:08:32;98832.23;;;23.93;65.06
42067;BME280;27734;47.028;28.820;2023-08-07T00:11:07;98833.55;;;23.84;65.22
42067;BME280;27734;47.028;28.820;2023-08-07T00:13:37;98837.19;;;23.82;65.60
42067;BME280;27734;47.028;28.820;2023-08-07T00:16:05;98833.58;;;23.83;65.89
42067;BME280;27734;47.028;28.820;2023-08-07T00:18:34;98838.83;;;23.86;65.53
42067;BME280;27734;47.028;28.820;2023-08-07T00:21:02;98841.52;;;23.86;65.97
42067;BME280;27734;47.028;28.820;2023-08-07T00:23:31;98832.83;;;23.79;66.08
42067;BME280;27734;47.028;28.820;2023-08-07T00:25:59;98829.56;;;23.73;66.38
42067;BME280;27734;47.028;28.820;2023-08-07T00:28:28;98834.20;;;23.69;66.53
42067;BME280;27734;47.028;28.820;2023-08-07T00:30:57;98847.59;;;23.69;66.59
42067;BME280;27734;47.028;28.820;2023-08-07T00:33:25;98843.23;;;23.66;66.82
42067;BME280;27734;47.028;28.820;2023-08-07T00:35:54;98847.92;;;23.61;67.08
42067;BME280;27734;47.028;28.820;2023-08-07T00:38:23;98842.57;;;23.61;67.50
42067;BME280;27734;47.028;28.820;2023-08-07T00:40:51;98847.27;;;23.56;67.61
42067;BME280;27734;47.028;28.820;2023-08-07T00:43:20;98850.08;;;23.53;67.78
42067;BME280;27734;47.028;28.820;2023-08-07T00:45:51;98847.34;;;23.55;67.87
42067;BME280;27734;47.028;28.820;2023-08-07T00:48:21;98848.20;;;23.55;67.72
42067;BME280;27734;47.028;28.820;2023-08-07T00:50:50;98847.34;;;23.55;68.09
42067;BME280;27734;47.028;28.820;2023-08-07T00:53:19;98852.06;;;23.48;67.95
42067;BME280;27734;47.028;28.820;2023-08-07T00:55:48;98861.91;;;23.47;68.29
42067;BME280;27734;47.028;28.820;2023-08-07T00:58:17;98860.03;;;23.49;68.65
42067;BME280;27734;47.028;28.820;2023-08-07T01:00:46;98858.37;;;23.47;68.76
42067;BME280;27734;47.028;28.820;2023-08-07T01:03:15;98848.53;;;23.47;68.57
42067;BME280;27734;47.028;28.820;2023-08-07T01:05:44;98848.53;;;23.47;68.72
42067;BME280;27734;47.028;28.820;2023-08-07T01:08:13;98853.09;;;23.45;69.02
42067;BME280;27734;47.028;28.820;2023-08-07T01:10:51;98846.71;;;23.48;69.18
42067;BME280;27734;47.028;28.820;2023-08-07T01:13:31;98854.08;;;23.43;69.10
42067;BME280;27734;47.028;28.820;2023-08-07T01:16:20;98856.95;;;23.38;68.91
42067;BME280;27734;47.028;28.820;2023-08-07T01:18:50;98851.93;;;23.30;69.22
42067;BME280;27734;47.028;28.820;2023-08-07T01:21:19;98845.98;;;23.24;69.63
42067;BME280;27734;47.028;28.820;2023-08-07T01:23:48;98837.36;;;23.17;69.21
42067;BME280;27734;47.028;28.820;2023-08-07T01:26:18;98830.86;;;23.01;69.74
42067;BME280;27734;47.028;28.820;2023-08-07T01:28:52;98835.92;;;22.86;70.57
42067;BME280;27734;47.028;28.820;2023-08-07T01:31:23;98832.55;;;22.81;70.67
42067;BME280;27734;47.028;28.820;2023-08-07T01:33:59;98839.77;;;22.79;70.91
42067;BME280;27734;47.028;28.820;2023-08-07T01:36:30;98832.98;;;22.70;70.98
42067;BME280;27734;47.028;28.820;2023-08-07T01:39:00;98835.11;;;22.62;70.67
42067;BME280;27734;47.028;28.820;2023-08-07T01:41:29;98837.16;;;22.55;71.35
42067;BME280;27734;47.028;28.820;2023-08-07T01:43:58;98840.08;;;22.49;72.06
42067;BME280;27734;47.028;28.820;2023-08-07T01:46:27;98848.39;;;22.41;71.69
42067;BME280;27734;47.028;28.820;2023-08-07T01:48:55;98851.25;;;22.37;71.78
42067;BME280;27734;47.028;28.820;2023-08-07T01:51:24;98857.69;;;22.31;71.57
42067;BME280;27734;47.028;28.820;2023-08-07T01:53:53;98854.30;;;22.26;72.55
42067;BME280;27734;47.028;28.820;2023-08-07T01:56:21;98866.68;;;22.29;72.04
42067;BME280;27734;47.028;28.820;2023-08-07T01:58:50;98870.93;;;22.34;71.72
42067;BME280;27734;47.028;28.820;2023-08-07T02:01:18;98870.87;;;22.36;72.34
42067;BME280;27734;47.028;28.820;2023-08-07T02:03:47;98885.06;;;22.38;72.87
42067;BME280;27734;47.028;28.820;2023-08-07T02:06:15;98887.44;;;22.46;72.37
42067;BME280;27734;47.028;28.820;2023-08-07T02:08:44;98891.78;;;22.48;71.98
42067;BME280;27734;47.028;28.820;2023-08-07T02:11:13;98891.59;;;22.53;72.11
42067;BME280;27734;47.028;28.820;2023-08-07T02:13:42;98888.92;;;22.53;71.66
42067;BME280;27734;47.028;28.820;2023-08-07T02:16:10;98884.83;;;22.44;71.68
42067;BME280;27734;47.028;28.820;2023-08-07T02:18:39;98897.53;;;22.37;71.43
42067;BME280;27734;47.028;28.820;2023-08-07T02:21:07;98889.57;;;22.36;72.08
42067;BME280;27734;47.028;28.820;2023-08-07T02:23:36;98905.44;;;22.40;72.04
42067;BME280;27734;47.028;28.820;2023-08-07T02:26:05;98902.52;;;22.47;71.60
42067;BME280;27734;47.028;28.820;2023-08-07T02:28:34;98904.28;;;22.48;71.68
42067;BME280;27734;47.028;28.820;2023-08-07T02:31:03;98904.34;;;22.46;71.53
42067;BME280;27734;47.028;28.820;2023-08-07T02:33:31;98897.13;;;22.48;71.22
42067;BME280;27734;47.028;28.820;2023-08-07T02:36:01;98904.45;;;22.43;71.90
42067;BME280;27734;47.028;28.820;2023-08-07T02:38:29;98910.60;;;22.45;71.54
42067;BME280;27734;47.028;28.820;2023-08-07T02:40:58;98915.20;;;22.41;71.69
42067;BME280;27734;47.028;28.820;2023-08-07T02:43:26;98917.19;;;22.36;70.99
42067;BME280;27734;47.028;28.820;2023-08-07T02:45:56;98919.69;;;22.41;71.82
42067;BME280;27734;47.028;28.820;2023-08-07T02:48:25;98928.33;;;22.48;71.68
42067;BME280;27734;47.028;28.820;2023-08-07T02:50:53;98936.17;;;22.52;71.62
42067;BME280;27734;47.028;28.820;2023-08-07T02:53:22;98940.48;;;22.56;71.55
42067;BME280;27734;47.028;28.820;2023-08-07T02:55:50;98952.78;;;22.60;71.65
42067;BME280;27734;47.028;28.820;2023-08-07T02:58:19;98949.13;;;22.63;71.59
42067;BME280;27734;47.028;28.820;2023-08-07T03:00:47;98955.57;;;22.57;71.03
42067;BME280;27734;47.028;28.820;2023-08-07T03:03:16;98962.04;;;22.52;71.39
42067;BME280;27734;47.028;28.820;2023-08-07T03:05:49;98968.65;;;22.41;71.49
42067;BME280;27734;47.028;28.820;2023-08-07T03:08:18;98978.64;;;22.36;70.87
42067;BME280;27734;47.028;28.820;2023-08-07T03:10:52;98983.27;;;22.31;71.16
42067;BME280;27734;47.028;28.820;2023-08-07T03:13:20;98976.33;;;22.25;71.43
42067;BME280;27734;47.028;28.820;2023-08-07T03:15:49;98974.69;;;22.21;71.19
42067;BME280;27734;47.028;28.820;2023-08-07T03:18:18;98978.22;;;22.22;71.37
42067;BME280;27734;47.028;28.820;2023-08-07T03:20:47;98985.38;;;22.21;71.21
42067;BME280;27734;47.028;28.820;2023-08-07T03:23:15;98981.90;;;22.19;71.39
42067;BME280;27734;47.028;28.820;2023-08-07T03:25:44;98987.13;;;22.22;71.45
42067;BME280;27734;47.028;28.820;2023-08-07T03:28:12;98993.45;;;22.20;71.87
42067;BME280;27734;47.028;28.820;2023-08-07T03:30:41;98995.25;;;22.19;71.49
42067;BME280;27734;47.028;28.820;2023-08-07T03:33:10;99000.76;;;22.15;71.75
42067;BME280;27734;47.028;28.820;2023-08-07T03:35:40;99011.45;;;22.15;71.57
42067;BME280;27734;47.028;28.820;2023-08-07T03:38:09;99013.95;;;22.19;71.52
42067;BME280;27734;47.028;28.820;2023-08-07T03:40:38;99010.12;;;22.26;72.25
42067;BME280;27734;47.028;28.820;2023-08-07T03:43:07;99025.91;;;22.34;71.67
42067;BME280;27734;47.028;28.820;2023-08-07T03:45:37;99015.05;;;22.39;71.58
42067;BME280;27734;47.028;28.820;2023-08-07T03:48:07;99016.47;;;22.49;71.40
42067;BME280;27734;47.028;28.820;2023-08-07T03:50:36;99026.08;;;22.55;71.79
42067;BME280;27734;47.028;28.820;2023-08-07T03:53:06;99021.36;;;22.61;71.43
42067;BME280;27734;47.028;28.820;2023-08-07T03:55:40;99017.72;;;22.64;71.64
42067;BME280;27734;47.028;28.820;2023-08-07T03:58:09;99028.47;;;22.63;71.42
42067;BME280;27734;47.028;28.820;2023-08-07T04:00:38;99026.71;;;22.61;71.60
42067;BME280;27734;47.028;28.820;2023-08-07T04:03:06;99028.58;;;22.59;71.71
42067;BME280;27734;47.028;28.820;2023-08-07T04:05:35;99037.57;;;22.57;71.23
42067;BME280;27734;47.028;28.820;2023-08-07T04:08:04;99037.69;;;22.54;71.72
42067;BME280;27734;47.028;28.820;2023-08-07T04:10:33;99043.95;;;22.53;70.93
42067;BME280;27734;47.028;28.820;2023-08-07T04:13:01;99043.14;;;22.51;71.69
42067;BME280;27734;47.028;28.820;2023-08-07T04:15:30;99044.84;;;22.53;71.60
42067;BME280;27734;47.028;28.820;2023-08-07T04:17:59;99050.08;;;22.56;71.99
42067;BME280;27734;47.028;28.820;2023-08-07T04:20:27;99042.81;;;22.60;71.95
42067;BME280;27734;47.028;28.820;2023-08-07T04:22:56;99037.29;;;22.65;71.62
42067;BME280;27734;47.028;28.820;2023-08-07T04:25:24;99040.83;;;22.65;71.70
42067;BME280;27734;47.028;28.820;2023-08-07T04:27:53;99041.69;;;22.66;71.71
42067;BME280;27734;47.028;28.820;2023-08-07T04:30:22;99046.00;;;22.70;71.51
42067;BME280;27734;47.028;28.820;2023-08-07T04:32:51;99056.58;;;22.73;71.41
42067;BME280;27734;47.028;28.820;2023-08-07T04:35:19;99063.57;;;22.77;71.09
42067;BME280;27734;47.028;28.820;2023-08-07T04:37:48;99055.37;;;22.82;71.38
42067;BME280;27734;47.028;28.820;2023-08-07T04:40:16;99050.66;;;22.88;71.64
42067;BME280;27734;47.028;28.820;2023-08-07T04:42:45;99047.58;;;22.99;71.85
42067;BME280;27734;47.028;28.820;2023-08-07T04:45:14;99050.73;;;23.10;71.89
42067;BME280;27734;47.028;28.820;2023-08-07T04:47:42;99054.25;;;23.12;71.45
42067;BME280;27734;47.028;28.820;2023-08-07T04:50:14;99054.37;;;23.09;71.08
42067;BME280;27734;47.028;28.820;2023-08-07T04:52:42;99058.11;;;23.04;71.19
42067;BME280;27734;47.028;28.820;2023-08-07T04:55:12;99058.34;;;22.97;71.26
42067;BME280;27734;47.028;28.820;2023-08-07T04:57:40;99061.02;;;22.97;71.30
42067;BME280;27734;47.028;28.820;2023-08-07T05:00:15;99052.93;;;22.99;70.73
42067;BME280;27734;47.028;28.820;2023-08-07T05:02:49;99064.20;;;23.07;71.15
42067;BME280;27734;47.028;28.820;2023-08-07T05:05:27;99063.81;;;23.18;71.18
42067;BME280;27734;47.028;28.820;2023-08-07T05:07:57;99059.98;;;23.25;70.67
42067;BME280;27734;47.028;28.820;2023-08-07T05:10:26;99064.27;;;23.29;70.70
42067;BME280;27734;47.028;28.820;2023-08-07T05:12:55;99071.86;;;23.40;70.46
42067;BME280;27734;47.028;28.820;2023-08-07T05:15:25;99068.88;;;23.48;70.46
42067;BME280;27734;47.028;28.820;2023-08-07T05:17:57;99076.55;;;23.57;70.35
42067;BME280;27734;47.028;28.820;2023-08-07T05:20:27;99069.16;;;23.64;70.08
42067;BME280;27734;47.028;28.820;2023-08-07T05:22:56;99087.56;;;23.72;70.09
42067;BME280;27734;47.028;28.820;2023-08-07T05:25:25;99084.08;;;23.69;69.55
42067;BME280;27734;47.028;28.820;2023-08-07T05:27:56;99085.04;;;23.68;69.78
42067;BME280;27734;47.028;28.820;2023-08-07T05:30:26;99081.22;;;23.74;69.60
42067;BME280;27734;47.028;28.820;2023-08-07T05:32:57;99089.80;;;23.82;70.34
42067;BME280;27734;47.028;28.820;2023-08-07T05:35:27;99095.95;;;23.86;70.10
42067;BME280;27734;47.028;28.820;2023-08-07T05:38:00;99104.09;;;23.83;70.29
42067;BME280;27734;47.028;28.820;2023-08-07T05:40:32;99105.84;;;23.84;70.53
42067;BME280;27734;47.028;28.820;2023-08-07T05:43:08;99107.53;;;23.86;70.22
42067;BME280;27734;47.028;28.820;2023-08-07T05:45:45;99109.22;;;23.89;70.43
42067;BME280;27734;47.028;28.820;2023-08-07T05:48:26;99117.26;;;23.89;70.30
42067;BME280;27734;47.028;28.820;2023-08-07T05:50:56;99122.55;;;23.91;70.33
42067;BME280;27734;47.028;28.820;2023-08-07T05:53:37;99127.98;;;23.89;70.06
42067;BME280;27734;47.028;28.820;2023-08-07T05:56:13;99124.59;;;23.84;69.93
42067;BME280;27734;47.028;28.820;2023-08-07T05:58:59;99129.88;;;23.85;70.09
42067;BME280;27734;47.028;28.820;2023-08-07T06:01:42;99128.71;;;23.93;69.79
42067;BME280;27734;47.028;28.820;2023-08-07T06:04:33;99133.94;;;23.96;69.45
42067;BME280;27734;47.028;28.820;2023-08-07T06:07:12;99127.28;;;24.06;69.76
42067;BME280;27734;47.028;28.820;2023-08-07T06:10:17;99129.73;;;24.33;69.60
42067;BME280;27734;47.028;28.820;2023-08-07T06:13:00;99144.27;;;24.48;69.18
42067;BME280;27734;47.028;28.820;2023-08-07T06:15:34;99141.52;;;24.49;68.72
42067;BME280;27734;47.028;28.820;2023-08-07T06:18:21;99140.16;;;24.61;68.79
42067;BME280;27734;47.028;28.820;2023-08-07T06:21:29;99139.03;;;24.67;68.50
42067;BME280;27734;47.028;28.820;2023-08-07T06:26:59;99129.66;;;24.55;66.38
42067;BME280;27734;47.028;28.820;2023-08-07T06:29:31;99148.44;;;24.55;66.50
42067;BME280;27734;47.028;28.820;2023-08-07T06:32:44;99150.19;;;24.56;66.63
42067;BME280;27734;47.028;28.820;2023-08-07T06:35:32;99160.92;;;24.56;66.76
42067;BME280;27734;47.028;28.820;2023-08-07T06:38:27;99157.47;;;24.52;65.46
42067;BME280;27734;47.028;28.820;2023-08-07T06:44:48;99157.80;;;24.45;65.18
42067;BME280;27734;47.028;28.820;2023-08-07T06:47:20;99162.30;;;24.44;64.43
42067;BME280;27734;47.028;28.820;2023-08-07T06:50:12;99166.04;;;24.40;63.53
42067;BME280;27734;47.028;28.820;2023-08-07T06:52:51;99173.34;;;24.36;63.36
42067;BME280;27734;47.028;28.820;2023-08-07T06:58:29;99182.83;;;24.45;63.30
42067;BME280;27734;47.028;28.820;2023-08-07T07:01:10;99182.50;;;24.53;63.35
42067;BME280;27734;47.028;28.820;2023-08-07T07:03:43;99199.75;;;24.68;63.21
42067;BME280;27734;47.028;28.820;2023-08-07T07:06:42;99179.66;;;24.78;63.13
42067;BME280;27734;47.028;28.820;2023-08-07T07:09:15;99192.46;;;24.92;63.72
42067;BME280;27734;47.028;28.820;2023-08-07T07:12:01;99190.69;;;25.11;63.11
42067;BME280;27734;47.028;28.820;2023-08-07T07:17:55;99198.59;;;25.35;62.64
42067;BME280;27734;47.028;28.820;2023-08-07T07:20:42;99208.97;;;25.43;62.62
42067;BME280;27734;47.028;28.820;2023-08-07T07:23:29;99207.41;;;25.58;62.64
42067;BME280;27734;47.028;28.820;2023-08-07T07:26:14;99212.99;;;25.72;62.15
42067;BME280;27734;47.028;28.820;2023-08-07T07:28:56;99231.94;;;25.88;61.77
42067;BME280;27734;47.028;28.820;2023-08-07T07:31:28;99225.86;;;26.04;61.33
42067;BME280;27734;47.028;28.820;2023-08-07T07:33:59;99219.28;;;26.28;60.97
42067;BME280;27734;47.028;28.820;2023-08-07T07:36:31;99215.30;;;26.54;60.17
42067;BME280;27734;47.028;28.820;2023-08-07T07:39:06;99228.31;;;26.81;58.40
42067;BME280;27734;47.028;28.820;2023-08-07T07:41:45;99228.52;;;27.29;58.32
42067;BME280;27734;47.028;28.820;2023-08-07T07:44:17;99239.77;;;27.71;57.35
42067;BME280;27734;47.028;28.820;2023-08-07T07:46:49;99252.69;;;27.97;56.91
42067;BME280;27734;47.028;28.820;2023-08-07T07:49:23;99263.39;;;27.99;55.64
42067;BME280;27734;47.028;28.820;2023-08-07T07:54:44;99270.27;;;27.71;53.99
42067;BME280;27734;47.028;28.820;2023-08-07T07:57:17;99274.32;;;27.62;53.70
42067;BME280;27734;47.028;28.820;2023-08-07T07:59:50;99273.95;;;27.53;53.41
42067;BME280;27734;47.028;28.820;2023-08-07T08:02:23;99270.48;;;27.51;53.53
42067;BME280;27734;47.028;28.820;2023-08-07T08:04:56;99267.23;;;27.44;53.18
42067;BME280;27734;47.028;28.820;2023-08-07T08:07:26;99274.38;;;27.45;53.60
42067;BME280;27734;47.028;28.820;2023-08-07T08:09:56;99271.84;;;27.42;53.30
42067;BME280;27734;47.028;28.820;2023-08-07T08:12:32;99263.59;;;27.45;52.96
42067;BME280;27734;47.028;28.820;2023-08-07T08:15:04;99264.70;;;27.41;52.39
42067;BME280;27734;47.028;28.820;2023-08-07T08:17:37;99271.39;;;27.34;50.91
42067;BME280;27734;47.028;28.820;2023-08-07T08:20:17;99273.42;;;27.11;50.45
42067;BME280;27734;47.028;28.820;2023-08-07T08:22:49;99272.50;;;26.95;50.81
42067;BME280;27734;47.028;28.820;2023-08-07T08:25:18;99273.98;;;26.83;50.47
42067;BME280;27734;47.028;28.820;2023-08-07T08:27:48;99284.27;;;26.75;50.29
42067;BME280;27734;47.028;28.820;2023-08-07T08:30:20;99291.17;;;26.80;50.70
42067;BME280;27734;47.028;28.820;2023-08-07T08:32:56;99289.73;;;26.90;50.68
42067;BME280;27734;47.028;28.820;2023-08-07T08:35:26;99290.95;;;27.02;50.53
42067;BME280;27734;47.028;28.820;2023-08-07T08:38:06;99290.63;;;27.08;50.04
42067;BME280;27734;47.028;28.820;2023-08-07T08:40:39;99287.53;;;27.16;50.08
42067;BME280;27734;47.028;28.820;2023-08-07T08:43:14;99301.46;;;27.24;49.90
42067;BME280;27734;47.028;28.820;2023-08-07T08:45:52;99296.94;;;27.25;49.77
42067;BME280;27734;47.028;28.820;2023-08-07T08:48:23;99304.08;;;27.26;49.95
42067;BME280;27734;47.028;28.820;2023-08-07T08:50:56;99309.63;;;27.23;49.57
42067;BME280;27734;47.028;28.820;2023-08-07T08:53:29;99304.63;;;27.15;49.22
42067;BME280;27734;47.028;28.820;2023-08-07T08:56:01;99308.50;;;27.09;49.16
42067;BME280;27734;47.028;28.820;2023-08-07T08:58:44;99307.48;;;27.12;49.47
42067;BME280;27734;47.028;28.820;2023-08-07T09:01:18;99311.11;;;27.11;48.89
42067;BME280;27734;47.028;28.820;2023-08-07T09:03:53;99306.86;;;27.07;49.49
42067;BME280;27734;47.028;28.820;2023-08-07T09:06:27;99312.32;;;27.05;49.42
42067;BME280;27734;47.028;28.820;2023-08-07T09:08:59;99317.23;;;27.15;48.59
42067;BME280;27734;47.028;28.820;2023-08-07T09:11:30;99314.92;;;27.24;48.71
42067;BME280;27734;47.028;28.820;2023-08-07T09:14:07;99314.77;;;27.28;48.25
42067;BME280;27734;47.028;28.820;2023-08-07T09:16:40;99313.02;;;27.26;48.01
42067;BME280;27734;47.028;28.820;2023-08-07T09:19:11;99318.19;;;27.31;47.58
42067;BME280;27734;47.028;28.820;2023-08-07T09:21:43;99326.84;;;27.38;46.89
42067;BME280;27734;47.028;28.820;2023-08-07T09:24:15;99332.53;;;27.49;46.94
42067;BME280;27734;47.028;28.820;2023-08-07T09:26:48;99327.97;;;27.67;46.29
42067;BME280;27734;47.028;28.820;2023-08-07T09:29:27;99333.17;;;27.88;46.18
42067;BME280;27734;47.028;28.820;2023-08-07T09:32:08;99337.13;;;27.98;46.06
42067;BME280;27734;47.028;28.820;2023-08-07T09:34:39;99334.61;;;28.11;45.61
42067;BME280;27734;47.028;28.820;2023-08-07T09:37:17;99330.80;;;28.15;45.31
42067;BME280;27734;47.028;28.820;2023-08-07T09:40:12;99344.03;;;28.20;45.39
42067;BME280;27734;47.028;28.820;2023-08-07T09:43:01;99343.67;;;28.10;43.30
42067;BME280;27734;47.028;28.820;2023-08-07T09:45:54;99345.13;;;28.00;43.90
42067;BME280;27734;47.028;28.820;2023-08-07T09:48:32;99340.98;;;28.10;43.83
42067;BME280;27734;47.028;28.820;2023-08-07T09:51:11;99343.69;;;28.26;43.78
42067;BME280;27734;47.028;28.820;2023-08-07T09:53:42;99346.30;;;28.43;44.02
42067;BME280;27734;47.028;28.820;2023-08-07T09:56:27;99361.39;;;28.63;43.67
42067;BME280;27734;47.028;28.820;2023-08-07T09:58:58;99359.91;;;28.74;43.55
42067;BME280;27734;47.028;28.820;2023-08-07T10:01:31;99357.36;;;28.86;42.75
42067;BME280;27734;47.028;28.820;2023-08-07T10:04:05;99361.28;;;28.97;42.93
42067;BME280;27734;47.028;28.820;2023-08-07T10:06:36;99364.92;;;28.96;41.78
42067;BME280;27734;47.028;28.820;2023-08-07T10:09:12;99386.88;;;28.90;41.77
42067;BME280;27734;47.028;28.820;2023-08-07T10:11:43;99384.42;;;29.01;41.34
42067;BME280;27734;47.028;28.820;2023-08-07T10:14:15;99386.93;;;29.20;41.47
42067;BME280;27734;47.028;28.820;2023-08-07T10:16:50;99384.39;;;29.33;41.55
42067;BME280;27734;47.028;28.820;2023-08-07T10:19:22;99382.02;;;29.57;41.37
42067;BME280;27734;47.028;28.820;2023-08-07T10:21:53;99388.92;;;29.77;40.89
42067;BME280;27734;47.028;28.820;2023-08-07T10:24:35;99400.06;;;29.87;40.42
42067;BME280;27734;47.028;28.820;2023-08-07T10:27:17;99399.87;;;29.90;39.96
42067;BME280;27734;47.028;28.820;2023-08-07T10:29:51;99395.75;;;29.68;39.89
42067;BME280;27734;47.028;28.820;2023-08-07T10:35:43;99405.49;;;29.56;39.36
42067;BME280;27734;47.028;28.820;2023-08-07T10:38:33;99411.77;;;29.27;38.52
42067;BME280;27734;47.028;28.820;2023-08-07T10:44:19;99424.44;;;28.78;38.73
42067;BME280;27734;47.028;28.820;2023-08-07T10:47:03;99421.19;;;28.72;38.23
42067;BME280;27734;47.028;28.820;2023-08-07T10:49:36;99426.06;;;28.81;38.01
42067;BME280;27734;47.028;28.820;2023-08-07T10:52:13;99424.30;;;29.12;38.09
42067;BME280;27734;47.028;28.820;2023-08-07T10:55:00;99413.84;;;29.37;37.85
42067;BME280;27734;47.028;28.820;2023-08-07T10:58:08;99415.23;;;29.59;37.57
42067;BME280;27734;47.028;28.820;2023-08-07T11:08:27;99420.92;;;29.85;37.37
42067;BME280;27734;47.028;28.820;2023-08-07T11:14:14;99426.05;;;30.04;37.36
42067;BME280;27734;47.028;28.820;2023-08-07T11:16:58;99433.50;;;30.00;36.55
42067;BME280;27734;47.028;28.820;2023-08-07T11:19:36;99425.30;;;29.71;36.56
42067;BME280;27734;47.028;28.820;2023-08-07T11:22:10;99437.28;;;29.67;36.65
42067;BME280;27734;47.028;28.820;2023-08-07T11:24:44;99442.53;;;29.54;36.62
42067;BME280;27734;47.028;28.820;2023-08-07T11:27:20;99441.70;;;29.68;36.69
42067;BME280;27734;47.028;28.820;2023-08-07T11:30:01;99443.22;;;29.88;36.39
42067;BME280;27734;47.028;28.820;2023-08-07T11:32:39;99432.92;;;29.95;36.30
42067;BME280;27734;47.028;28.820;2023-08-07T11:35:10;99437.73;;;30.04;36.18
42067;BME280;27734;47.028;28.820;2023-08-07T11:37:53;99434.45;;;30.14;36.08
42067;BME280;27734;47.028;28.820;2023-08-07T11:40:26;99429.55;;;30.20;36.16
42067;BME280;27734;47.028;28.820;2023-08-07T11:43:16;99434.77;;;30.23;36.23
42067;BME280;27734;47.028;28.820;2023-08-07T11:45:54;99427.23;;;30.14;35.50
42067;BME280;27734;47.028;28.820;2023-08-07T11:49:00;99421.03;;;30.12;35.40
42067;BME280;27734;47.028;28.820;2023-08-07T11:51:41;99423.64;;;30.14;35.48
42067;BME280;27734;47.028;28.820;2023-08-07T11:54:15;99433.12;;;30.06;34.82
42067;BME280;27734;47.028;28.820;2023-08-07T11:56:46;99432.03;;;29.94;34.76
42067;BME280;27734;47.028;28.820;2023-08-07T11:59:33;99425.00;;;29.92;34.62
42067;BME280;27734;47.028;28.820;2023-08-07T12:02:26;99429.62;;;30.04;34.92
42067;BME280;27734;47.028;28.820;2023-08-07T12:05:03;99429.62;;;30.04;35.07
42067;BME280;27734;47.028;28.820;2023-08-07T12:07:41;99436.39;;;29.97;34.85
42067;BME280;27734;47.028;28.820;2023-08-07T12:10:25;99442.37;;;29.88;35.21
42067;BME280;27734;47.028;28.820;2023-08-07T12:13:00;99456.38;;;29.64;34.67
42067;BME280;27734;47.028;28.820;2023-08-07T12:15:29;99448.51;;;29.45;34.99
42067;BME280;27734;47.028;28.820;2023-08-07T12:18:02;99442.22;;;29.45;34.84
42067;BME280;27734;47.028;28.820;2023-08-07T12:20:34;99447.47;;;29.62;34.94
42067;BME280;27734;47.028;28.820;2023-08-07T12:23:05;99455.92;;;29.72;34.63
42067;BME280;27734;47.028;28.820;2023-08-07T12:25:43;99455.18;;;29.54;34.69
42067;BME280;27734;47.028;28.820;2023-08-07T12:28:12;99471.20;;;29.27;34.52
42067;BME280;27734;47.028;28.820;2023-08-07T12:33:34;99469.69;;;28.73;34.50
42067;BME280;27734;47.028;28.820;2023-08-07T12:36:04;99475.51;;;28.65;34.37
42067;BME280;27734;47.028;28.820;2023-08-07T12:38:33;99474.56;;;28.66;34.52
42067;BME280;27734;47.028;28.820;2023-08-07T12:41:02;99466.08;;;28.57;34.58
42067;BME280;27734;47.028;28.820;2023-08-07T12:43:31;99470.45;;;28.59;34.58
42067;BME280;27734;47.028;28.820;2023-08-07T12:46:06;99462.91;;;28.82;34.82
42067;BME280;27734;47.028;28.820;2023-08-07T12:48:36;99473.97;;;28.93;35.00
42067;BME280;27734;47.028;28.820;2023-08-07T12:51:09;99469.72;;;28.89;35.05
42067;BME280;27734;47.028;28.820;2023-08-07T12:53:57;99479.20;;;28.80;35.36
42067;BME280;27734;47.028;28.820;2023-08-07T12:56:30;99470.14;;;28.97;35.58
42067;BME280;27734;47.028;28.820;2023-08-07T12:59:05;99485.75;;;28.92;35.20
42067;BME280;27734;47.028;28.820;2023-08-07T13:01:40;99489.30;;;28.93;35.54
42067;BME280;27734;47.028;28.820;2023-08-07T13:04:12;99488.32;;;28.78;35.35
42067;BME280;27734;47.028;28.820;2023-08-07T13:06:46;99497.73;;;28.53;35.81
42067;BME280;27734;47.028;28.820;2023-08-07T13:09:26;99493.20;;;28.38;36.21
42067;BME280;27734;47.028;28.820;2023-08-07T13:11:55;99496.84;;;28.37;36.22
42067;BME280;27734;47.028;28.820;2023-08-07T13:14:26;99495.26;;;28.32;36.48
42067;BME280;27734;47.028;28.820;2023-08-07T13:16:55;99499.71;;;28.33;36.50
42067;BME280;27734;47.028;28.820;2023-08-07T13:19:24;99517.08;;;28.28;36.85
42067;BME280;27734;47.028;28.820;2023-08-07T13:21:55;99504.41;;;28.12;36.74
42067;BME280;27734;47.028;28.820;2023-08-07T13:24:30;99511.34;;;28.01;36.86
42067;BME280;27734;47.028;28.820;2023-08-07T13:27:00;99507.17;;;27.93;36.71
42067;BME280;27734;47.028;28.820;2023-08-07T13:29:28;99512.64;;;27.92;36.84
42067;BME280;27734;47.028;28.820;2023-08-07T13:32:00;99518.03;;;27.92;37.40
42067;BME280;27734;47.028;28.820;2023-08-07T13:34:31;99513.62;;;27.91;37.26
42067;BME280;27734;47.028;28.820;2023-08-07T13:37:00;99517.33;;;27.88;37.49
42067;BME280;27734;47.028;28.820;2023-08-07T13:39:28;99511.94;;;27.88;37.58
42067;BME280;27734;47.028;28.820;2023-08-07T13:41:57;99515.73;;;27.84;37.42
42067;BME280;27734;47.028;28.820;2023-08-07T13:44:27;99522.48;;;27.75;37.70
42067;BME280;27734;47.028;28.820;2023-08-07T13:46:56;99517.09;;;27.75;38.13
42067;BME280;27734;47.028;28.820;2023-08-07T13:49:26;99521.13;;;27.84;38.34
42067;BME280;27734;47.028;28.820;2023-08-07T13:51:58;99521.05;;;27.86;38.02
42067;BME280;27734;47.028;28.820;2023-08-07T13:54:29;99518.43;;;27.84;38.23
42067;BME280;27734;47.028;28.820;2023-08-07T13:57:01;99521.52;;;27.76;38.50
42067;BME280;27734;47.028;28.820;2023-08-07T13:59:33;99521.59;;;27.75;38.41